createdAt,value
2018-11-26T00:00:24.155Z,39.10
2018-11-26T00:01:20.652Z,39.50
2018-11-26T00:02:20.601Z,35.20
2018-11-26T00:03:20.601Z,40.90
2018-11-26T00:04:20.598Z,41.70
2018-11-26T00:05:20.579Z,35.60
2018-11-26T00:06:22.687Z,39.70
2018-11-26T00:07:21.585Z,40.00
2018-11-26T00:08:20.518Z,37.70
2018-11-26T00:09:20.518Z,38.00
2018-11-26T00:10:20.521Z,36.70
2018-11-26T00:11:20.672Z,36.50
2018-11-26T00:12:21.123Z,37.60
2018-11-26T00:13:20.476Z,39.70
2018-11-26T00:14:20.459Z,37.30
2018-11-26T00:15:22.123Z,34.90
2018-11-26T00:16:20.422Z,34.60
2018-11-26T00:17:20.444Z,37.80
2018-11-26T00:18:20.417Z,36.80
2018-11-26T00:19:20.420Z,36.50
2018-11-26T00:20:20.426Z,32.90
2018-11-26T00:21:20.380Z,35.00
2018-11-26T00:22:20.409Z,37.90
2018-11-26T00:23:20.331Z,35.20
2018-11-26T00:24:21.143Z,31.90
2018-11-26T00:25:20.366Z,34.90
2018-11-26T00:26:25.181Z,34.10
2018-11-26T00:27:20.361Z,35.80
2018-11-26T00:28:21.153Z,37.60
2018-11-26T00:29:20.302Z,36.80
2018-11-26T00:30:20.308Z,33.20
2018-11-26T00:31:20.699Z,38.00
2018-11-26T00:32:20.284Z,38.60
2018-11-26T00:33:25.158Z,32.60
2018-11-26T00:34:20.275Z,33.60
2018-11-26T00:35:27.194Z,31.10
2018-11-26T00:36:20.294Z,33.50
2018-11-26T00:37:20.247Z,32.00
2018-11-26T00:38:20.255Z,33.30
2018-11-26T00:39:20.198Z,31.80
2018-11-26T00:40:20.203Z,32.30
2018-11-26T00:41:20.262Z,33.20
2018-11-26T00:42:21.161Z,32.30
2018-11-26T00:43:20.655Z,35.40
2018-11-26T00:44:20.152Z,33.70
2018-11-26T00:45:20.146Z,35.80
2018-11-26T00:46:20.760Z,35.80
2018-11-26T00:47:20.120Z,35.20
2018-11-26T00:48:20.065Z,31.90
2018-11-26T00:49:20.059Z,32.50
2018-11-26T00:50:20.060Z,32.20
2018-11-26T00:51:20.071Z,32.80
2018-11-26T00:52:20.033Z,37.30
2018-11-26T00:53:20.026Z,34.20
2018-11-26T00:54:20.080Z,31.90
2018-11-26T00:55:20.046Z,32.00
2018-11-26T00:56:22.722Z,29.90
2018-11-26T00:57:20.029Z,31.50
2018-11-26T00:58:20.026Z,31.60
2018-11-26T00:59:20.670Z,30.60
2018-11-26T01:00:21.661Z,30.50
2018-11-26T01:01:20.227Z,31.10
2018-11-26T01:02:19.966Z,32.60
2018-11-26T01:03:19.967Z,33.20
2018-11-26T01:04:19.962Z,29.00
2018-11-26T01:05:19.939Z,28.90
2018-11-26T01:06:20.967Z,30.60
2018-11-26T01:07:19.914Z,30.40
2018-11-26T01:08:19.881Z,29.20
2018-11-26T01:09:19.911Z,27.80
2018-11-26T01:10:19.861Z,27.90
2018-11-26T01:11:19.912Z,28.20
2018-11-26T01:12:19.864Z,28.10
2018-11-26T01:13:19.858Z,26.50
2018-11-26T01:14:19.854Z,26.50
2018-11-26T01:15:20.691Z,30.80
2018-11-26T01:16:20.797Z,27.50
2018-11-26T01:17:20.275Z,26.40
2018-11-26T01:18:19.801Z,25.80
2018-11-26T01:19:19.787Z,27.00
2018-11-26T01:20:19.795Z,26.50
2018-11-26T01:21:19.757Z,27.80
2018-11-26T01:22:21.711Z,27.50
2018-11-26T01:23:19.793Z,27.50
2018-11-26T01:24:19.732Z,27.20
2018-11-26T01:25:19.719Z,25.40
2018-11-26T01:26:19.736Z,27.30
2018-11-26T01:27:19.788Z,26.60
2018-11-26T01:28:19.709Z,24.90
2018-11-26T01:29:19.701Z,26.10
2018-11-26T01:30:19.666Z,25.70
2018-11-26T01:31:19.644Z,25.80
2018-11-26T01:32:19.710Z,25.60
2018-11-26T01:33:19.655Z,27.10
2018-11-26T01:34:19.641Z,25.10
2018-11-26T01:35:21.207Z,25.70
2018-11-26T01:36:19.652Z,24.00
2018-11-26T01:37:19.779Z,27.10
2018-11-26T01:38:19.618Z,23.90
2018-11-26T01:39:22.183Z,26.10
2018-11-26T01:40:19.573Z,25.90
2018-11-26T01:41:20.541Z,26.20
2018-11-26T01:42:20.577Z,25.10
2018-11-26T01:43:19.509Z,26.10
2018-11-26T01:44:19.521Z,26.30
2018-11-26T01:45:19.510Z,24.10
2018-11-26T01:46:19.495Z,26.60
2018-11-26T01:47:19.453Z,25.60
2018-11-26T01:48:19.424Z,26.60
2018-11-26T01:49:20.122Z,27.40
2018-11-26T01:50:19.402Z,27.60
2018-11-26T01:51:20.142Z,26.00
2018-11-26T01:52:19.395Z,25.90
2018-11-26T01:53:19.373Z,26.50
2018-11-26T01:54:21.127Z,25.30
2018-11-26T01:55:19.370Z,26.10
2018-11-26T01:56:19.346Z,25.10
2018-11-26T01:57:21.149Z,25.40
2018-11-26T01:58:21.143Z,25.10
2018-11-26T01:59:20.122Z,27.50
2018-11-26T02:00:19.300Z,26.50
2018-11-26T02:01:20.147Z,25.80
2018-11-26T02:02:19.289Z,26.10
2018-11-26T02:03:19.268Z,25.60
2018-11-26T02:04:19.287Z,27.10
2018-11-26T02:05:20.182Z,26.30
2018-11-26T02:06:19.232Z,25.50
2018-11-26T02:07:20.152Z,25.60
2018-11-26T02:08:19.217Z,26.30
2018-11-26T02:09:19.246Z,26.00
2018-11-26T02:10:19.196Z,26.50
2018-11-26T02:11:19.185Z,25.10
2018-11-26T02:12:19.188Z,27.10
2018-11-26T02:13:19.159Z,27.00
2018-11-26T02:14:19.179Z,26.50
2018-11-26T02:15:20.123Z,28.70
2018-11-26T02:16:19.125Z,27.00
2018-11-26T02:17:21.154Z,27.90
2018-11-26T02:18:19.112Z,28.70
2018-11-26T02:19:19.092Z,29.00
2018-11-26T02:20:19.111Z,27.60
2018-11-26T02:21:19.213Z,30.20
2018-11-26T02:22:19.073Z,29.20
2018-11-26T02:23:19.622Z,29.40
2018-11-26T02:24:19.062Z,27.30
2018-11-26T02:25:19.026Z,28.90
2018-11-26T02:26:19.021Z,30.30
2018-11-26T02:27:20.462Z,29.80
2018-11-26T02:28:18.995Z,31.40
2018-11-26T02:29:19.029Z,29.10
2018-11-26T02:30:18.977Z,29.90
2018-11-26T02:31:18.970Z,32.10
2018-11-26T02:32:18.967Z,29.30
2018-11-26T02:33:18.948Z,29.80
2018-11-26T02:34:18.933Z,32.10
2018-11-26T02:35:18.941Z,29.90
2018-11-26T02:36:18.923Z,30.80
2018-11-26T02:37:18.902Z,31.90
2018-11-26T02:38:18.887Z,29.80
2018-11-26T02:39:18.883Z,30.50
2018-11-26T02:40:18.867Z,29.70
2018-11-26T02:41:18.912Z,29.60
2018-11-26T02:42:19.839Z,31.20
2018-11-26T02:43:18.844Z,30.80
2018-11-26T02:44:18.823Z,30.50
2018-11-26T02:45:18.822Z,31.10
2018-11-26T02:46:18.873Z,32.40
2018-11-26T02:47:21.630Z,30.20
2018-11-26T02:48:18.781Z,29.90
2018-11-26T02:49:18.776Z,30.00
2018-11-26T02:50:18.761Z,31.70
2018-11-26T02:51:18.778Z,31.40
2018-11-26T02:52:19.620Z,31.60
2018-11-26T02:53:18.747Z,31.20
2018-11-26T02:54:18.742Z,30.40
2018-11-26T02:55:18.727Z,31.00
2018-11-26T02:56:19.638Z,31.50
2018-11-26T02:57:19.717Z,31.10
2018-11-26T02:58:19.622Z,31.80
2018-11-26T02:59:18.675Z,32.50
2018-11-26T03:00:18.672Z,30.10
2018-11-26T03:01:19.142Z,32.80
2018-11-26T03:02:18.638Z,32.50
2018-11-26T03:03:18.679Z,32.30
2018-11-26T03:04:18.624Z,32.90
2018-11-26T03:05:18.620Z,34.20
2018-11-26T03:06:18.645Z,32.50
2018-11-26T03:07:18.580Z,30.90
2018-11-26T03:08:18.576Z,33.80
2018-11-26T03:09:18.565Z,32.10
2018-11-26T03:10:18.566Z,34.00
2018-11-26T03:11:18.658Z,32.70
2018-11-26T03:12:19.118Z,32.10
2018-11-26T03:13:18.533Z,33.80
2018-11-26T03:14:18.518Z,32.10
2018-11-26T03:15:18.498Z,31.80
2018-11-26T03:16:18.501Z,34.90
2018-11-26T03:17:18.514Z,32.30
2018-11-26T03:18:20.124Z,33.90
2018-11-26T03:19:20.116Z,32.90
2018-11-26T03:20:18.475Z,33.90
2018-11-26T03:21:18.442Z,33.30
2018-11-26T03:22:20.139Z,32.50
2018-11-26T03:23:18.407Z,34.10
2018-11-26T03:24:18.415Z,33.00
2018-11-26T03:25:18.423Z,31.50
2018-11-26T03:26:18.415Z,30.80
2018-11-26T03:27:18.406Z,32.80
2018-11-26T03:28:18.378Z,33.10
2018-11-26T03:29:18.346Z,30.40
2018-11-26T03:30:19.123Z,34.20
2018-11-26T03:31:18.343Z,34.40
2018-11-26T03:32:19.118Z,31.20
2018-11-26T03:33:19.131Z,33.30
2018-11-26T03:34:18.331Z,31.30
2018-11-26T03:35:18.283Z,31.90
2018-11-26T03:36:18.296Z,32.70
2018-11-26T03:37:23.126Z,32.80
2018-11-26T03:38:18.255Z,33.30
2018-11-26T03:39:18.242Z,32.50
2018-11-26T03:40:18.226Z,33.40
2018-11-26T03:41:18.234Z,32.90
2018-11-26T03:42:18.219Z,33.20
2018-11-26T03:43:19.150Z,32.70
2018-11-26T03:44:18.221Z,33.00
2018-11-26T03:45:19.125Z,32.30
2018-11-26T03:46:19.168Z,32.90
2018-11-26T03:47:18.159Z,31.10
2018-11-26T03:48:18.164Z,33.30
2018-11-26T03:49:18.131Z,32.60
2018-11-26T03:50:18.154Z,33.30
2018-11-26T03:51:21.630Z,34.10
2018-11-26T03:52:18.127Z,32.50
2018-11-26T03:53:18.111Z,33.10
2018-11-26T03:54:18.080Z,34.70
2018-11-26T03:55:18.070Z,33.10
2018-11-26T03:56:28.653Z,32.30
2018-11-26T03:57:19.617Z,31.70
2018-11-26T03:58:18.080Z,31.00
2018-11-26T03:59:18.030Z,32.20
2018-11-26T04:00:18.040Z,32.40
2018-11-26T04:01:18.053Z,32.70
2018-11-26T04:02:18.000Z,32.00
2018-11-26T04:03:17.988Z,32.30
2018-11-26T04:04:18.667Z,32.30
2018-11-26T04:05:17.970Z,32.40
2018-11-26T04:06:19.609Z,32.60
2018-11-26T04:07:17.980Z,31.90
2018-11-26T04:08:17.928Z,33.50
2018-11-26T04:09:20.613Z,32.60
2018-11-26T04:10:18.619Z,35.30
2018-11-26T04:11:17.897Z,32.90
2018-11-26T04:12:17.886Z,33.20
2018-11-26T04:13:17.899Z,34.00
2018-11-26T04:14:17.885Z,32.70
2018-11-26T04:15:17.859Z,31.90
2018-11-26T04:16:17.848Z,32.20
2018-11-26T04:17:17.869Z,33.60
2018-11-26T04:18:18.615Z,31.80
2018-11-26T04:19:18.145Z,32.10
2018-11-26T04:20:18.617Z,33.40
2018-11-26T04:21:17.862Z,30.20
2018-11-26T04:22:18.167Z,31.20
2018-11-26T04:23:18.614Z,30.30
2018-11-26T04:24:17.800Z,31.40
2018-11-26T04:25:18.613Z,31.80
2018-11-26T04:26:18.612Z,30.90
2018-11-26T04:27:18.022Z,31.40
2018-11-26T04:28:17.719Z,30.90
2018-11-26T04:29:17.725Z,32.10
2018-11-26T04:30:17.700Z,34.30
2018-11-26T04:31:17.687Z,32.00
2018-11-26T04:32:17.732Z,33.00
2018-11-26T04:33:17.665Z,31.20
2018-11-26T04:34:17.670Z,32.80
2018-11-26T04:35:17.647Z,32.10
2018-11-26T04:36:17.636Z,32.20
2018-11-26T04:37:18.138Z,30.80
2018-11-26T04:38:17.613Z,31.40
2018-11-26T04:39:17.600Z,32.50
2018-11-26T04:40:17.582Z,30.70
2018-11-26T04:41:20.137Z,32.40
2018-11-26T04:42:19.612Z,30.30
2018-11-26T04:43:17.558Z,32.10
2018-11-26T04:44:19.140Z,31.20
2018-11-26T04:45:19.125Z,30.60
2018-11-26T04:46:17.526Z,31.40
2018-11-26T04:47:17.536Z,32.80
2018-11-26T04:48:17.507Z,32.30
2018-11-26T04:49:17.494Z,31.60
2018-11-26T04:50:17.486Z,30.80
2018-11-26T04:51:17.470Z,32.10
2018-11-26T04:52:17.501Z,32.80
2018-11-26T04:53:17.495Z,32.90
2018-11-26T04:54:17.446Z,31.40
2018-11-26T04:55:17.445Z,30.00
2018-11-26T04:56:18.119Z,32.60
2018-11-26T04:57:17.425Z,31.10
2018-11-26T04:58:17.397Z,30.60
2018-11-26T04:59:18.128Z,31.70
2018-11-26T05:00:17.374Z,29.80
2018-11-26T05:01:22.120Z,30.80
2018-11-26T05:02:17.379Z,30.90
2018-11-26T05:03:17.356Z,30.20
2018-11-26T05:04:17.334Z,30.80
2018-11-26T05:05:17.322Z,29.70
2018-11-26T05:06:17.311Z,29.80
2018-11-26T05:07:17.325Z,29.90
2018-11-26T05:08:17.324Z,30.50
2018-11-26T05:09:17.289Z,28.30
2018-11-26T05:10:17.276Z,29.60
2018-11-26T05:11:17.257Z,29.00
2018-11-26T05:12:17.262Z,29.60
2018-11-26T05:13:17.243Z,29.40
2018-11-26T05:14:17.326Z,28.90
2018-11-26T05:15:17.215Z,30.30
2018-11-26T05:16:17.237Z,29.60
2018-11-26T05:17:17.235Z,28.60
2018-11-26T05:18:17.191Z,29.20
2018-11-26T05:19:17.176Z,30.30
2018-11-26T05:20:17.644Z,30.20
2018-11-26T05:21:17.174Z,29.50
2018-11-26T05:22:17.147Z,28.80
2018-11-26T05:23:17.130Z,30.10
2018-11-26T05:24:17.166Z,29.70
2018-11-26T05:25:17.107Z,29.90
2018-11-26T05:26:17.168Z,31.30
2018-11-26T05:27:17.120Z,28.90
2018-11-26T05:28:17.087Z,30.30
2018-11-26T05:29:19.614Z,30.70
2018-11-26T05:30:17.060Z,29.70
2018-11-26T05:31:17.043Z,27.20
2018-11-26T05:32:17.367Z,30.00
2018-11-26T05:33:17.024Z,28.70
2018-11-26T05:34:17.043Z,27.80
2018-11-26T05:35:17.014Z,29.20
2018-11-26T05:36:17.006Z,29.00
2018-11-26T05:37:16.981Z,29.10
2018-11-26T05:38:16.973Z,29.60
2018-11-26T05:39:16.960Z,28.00
2018-11-26T05:40:16.945Z,28.30
2018-11-26T05:41:16.951Z,27.90
2018-11-26T05:42:16.934Z,28.70
2018-11-26T05:43:16.913Z,27.40
2018-11-26T05:44:16.940Z,27.30
2018-11-26T05:45:16.952Z,28.30
2018-11-26T05:46:16.886Z,28.10
2018-11-26T05:47:16.909Z,27.00
2018-11-26T05:48:16.929Z,28.30
2018-11-26T05:49:16.878Z,26.80
2018-11-26T05:50:16.913Z,26.60
2018-11-26T05:51:16.936Z,27.70
2018-11-26T05:52:16.828Z,26.80
2018-11-26T05:53:16.835Z,27.00
2018-11-26T05:54:16.796Z,28.20
2018-11-26T05:55:16.814Z,29.00
2018-11-26T05:56:16.784Z,29.30
2018-11-26T05:57:17.132Z,27.60
2018-11-26T05:58:16.753Z,28.30
2018-11-26T05:59:16.747Z,27.60
2018-11-26T06:00:16.735Z,29.70
2018-11-26T06:01:16.721Z,28.80
2018-11-26T06:02:16.715Z,27.90
2018-11-26T06:03:16.721Z,28.10
2018-11-26T06:04:16.689Z,28.20
2018-11-26T06:05:16.680Z,29.30
2018-11-26T06:06:16.687Z,29.30
2018-11-26T06:07:16.659Z,28.80
2018-11-26T06:08:16.647Z,30.10
2018-11-26T06:09:16.642Z,28.10
2018-11-26T06:10:16.625Z,28.70
2018-11-26T06:11:16.630Z,30.40
2018-11-26T06:12:16.603Z,30.20
2018-11-26T06:13:16.598Z,29.30
2018-11-26T06:14:16.584Z,29.20
2018-11-26T06:15:16.576Z,29.40
2018-11-26T06:16:16.575Z,29.00
2018-11-26T06:17:16.554Z,29.50
2018-11-26T06:18:16.547Z,30.20
2018-11-26T06:19:16.529Z,29.00
2018-11-26T06:20:16.518Z,29.40
2018-11-26T06:21:16.729Z,29.10
2018-11-26T06:22:16.497Z,30.20
2018-11-26T06:23:16.487Z,28.60
2018-11-26T06:24:16.482Z,28.50
2018-11-26T06:25:16.498Z,29.70
2018-11-26T06:26:16.503Z,28.30
2018-11-26T06:27:16.521Z,30.00
2018-11-26T06:28:16.475Z,29.80
2018-11-26T06:29:16.432Z,28.50
2018-11-26T06:30:16.432Z,29.00
2018-11-26T06:31:16.570Z,28.20
2018-11-26T06:32:16.398Z,29.10
2018-11-26T06:33:16.384Z,28.70
2018-11-26T06:34:16.409Z,28.50
2018-11-26T06:35:16.393Z,28.00
2018-11-26T06:36:16.347Z,29.10
2018-11-26T06:37:16.492Z,28.10
2018-11-26T06:38:16.344Z,27.70
2018-11-26T06:39:16.326Z,28.10
2018-11-26T06:40:16.371Z,29.00
2018-11-26T06:41:16.317Z,28.40
2018-11-26T06:42:16.311Z,28.90
2018-11-26T06:43:17.424Z,30.00
2018-11-26T06:44:16.318Z,28.50
2018-11-26T06:45:16.316Z,28.20
2018-11-26T06:46:16.259Z,27.70
2018-11-26T06:47:16.229Z,28.20
2018-11-26T06:48:16.225Z,29.40
2018-11-26T06:49:16.221Z,28.20
2018-11-26T06:50:16.200Z,29.50
2018-11-26T06:51:16.192Z,30.20
2018-11-26T06:52:16.209Z,29.60
2018-11-26T06:53:16.179Z,28.20
2018-11-26T06:54:16.166Z,27.10
2018-11-26T06:55:16.158Z,27.90
2018-11-26T06:56:16.142Z,30.80
2018-11-26T06:57:16.462Z,29.20
2018-11-26T06:58:16.113Z,29.50
2018-11-26T06:59:16.105Z,28.70
2018-11-26T07:00:16.095Z,28.50
2018-11-26T07:01:16.086Z,27.50
2018-11-26T07:02:16.090Z,30.30
2018-11-26T07:03:16.062Z,29.50
2018-11-26T07:04:16.050Z,29.30
2018-11-26T07:05:16.045Z,29.40
2018-11-26T07:06:16.030Z,28.20
2018-11-26T07:07:16.034Z,28.60
2018-11-26T07:08:16.024Z,29.10
2018-11-26T07:09:15.999Z,29.00
2018-11-26T07:10:15.992Z,28.10
2018-11-26T07:11:15.980Z,27.60
2018-11-26T07:12:16.126Z,28.00
2018-11-26T07:13:15.955Z,29.00
2018-11-26T07:14:15.952Z,28.40
2018-11-26T07:15:15.937Z,27.90
2018-11-26T07:16:15.921Z,29.00
2018-11-26T07:17:15.927Z,27.80
2018-11-26T07:18:16.110Z,27.80
2018-11-26T07:19:15.894Z,28.60
2018-11-26T07:20:15.893Z,26.20
2018-11-26T07:21:15.869Z,27.20
2018-11-26T07:22:15.873Z,27.50
2018-11-26T07:23:15.868Z,28.90
2018-11-26T07:24:15.841Z,28.90
2018-11-26T07:25:15.826Z,26.60
2018-11-26T07:26:15.814Z,27.70
2018-11-26T07:27:16.143Z,28.10
2018-11-26T07:28:15.793Z,28.40
2018-11-26T07:29:15.784Z,28.40
2018-11-26T07:30:15.771Z,27.20
2018-11-26T07:31:15.760Z,26.50
2018-11-26T07:32:15.763Z,28.00
2018-11-26T07:33:15.740Z,27.20
2018-11-26T07:34:15.728Z,26.00
2018-11-26T07:35:15.720Z,26.20
2018-11-26T07:36:15.713Z,28.00
2018-11-26T07:37:15.729Z,25.90
2018-11-26T07:38:15.693Z,26.30
2018-11-26T07:39:15.676Z,27.30
2018-11-26T07:40:15.691Z,26.70
2018-11-26T07:41:15.654Z,26.00
2018-11-26T07:42:16.127Z,27.50
2018-11-26T07:43:15.643Z,25.80
2018-11-26T07:44:15.626Z,26.10
2018-11-26T07:45:15.612Z,27.30
2018-11-26T07:46:15.613Z,27.50
2018-11-26T07:47:15.626Z,27.70
2018-11-26T07:48:15.581Z,27.00
2018-11-26T07:49:15.581Z,27.40
2018-11-26T07:50:15.573Z,27.70
2018-11-26T07:51:15.546Z,28.10
2018-11-26T07:52:15.554Z,26.80
2018-11-26T07:53:15.524Z,26.40
2018-11-26T07:54:15.513Z,26.90
2018-11-26T07:55:15.504Z,26.90
2018-11-26T07:56:15.492Z,27.70
2018-11-26T07:57:15.484Z,26.90
2018-11-26T07:58:15.489Z,27.60
2018-11-26T07:59:15.473Z,26.60
2018-11-26T08:00:15.451Z,26.00
2018-11-26T08:01:15.443Z,26.80
2018-11-26T08:02:15.427Z,26.90
2018-11-26T08:03:15.424Z,25.70
2018-11-26T08:04:15.422Z,26.30
2018-11-26T08:05:15.410Z,25.30
2018-11-26T08:06:15.386Z,24.40
2018-11-26T08:07:15.378Z,26.00
2018-11-26T08:08:15.381Z,25.60
2018-11-26T08:09:15.356Z,26.70
2018-11-26T08:10:15.348Z,26.10
2018-11-26T08:11:15.332Z,25.40
2018-11-26T08:12:15.336Z,26.00
2018-11-26T08:13:15.329Z,23.80
2018-11-26T08:14:15.299Z,24.40
2018-11-26T08:15:15.289Z,26.10
2018-11-26T08:16:15.279Z,25.70
2018-11-26T08:17:15.270Z,25.30
2018-11-26T08:18:15.271Z,24.50
2018-11-26T08:19:15.249Z,24.30
2018-11-26T08:20:15.239Z,24.90
2018-11-26T08:21:15.225Z,24.80
2018-11-26T08:22:15.433Z,23.80
2018-11-26T08:23:15.218Z,24.10
2018-11-26T08:24:15.193Z,24.70
2018-11-26T08:25:15.184Z,24.80
2018-11-26T08:26:15.174Z,25.10
2018-11-26T08:27:15.164Z,24.60
2018-11-26T08:28:15.151Z,24.80
2018-11-26T08:29:15.628Z,23.00
2018-11-26T08:30:15.132Z,24.90
2018-11-26T08:31:15.128Z,24.80
2018-11-26T08:32:15.110Z,24.20
2018-11-26T08:33:15.101Z,23.90
2018-11-26T08:34:15.100Z,23.10
2018-11-26T08:35:15.094Z,24.30
2018-11-26T08:36:15.070Z,23.70
2018-11-26T08:37:15.073Z,24.40
2018-11-26T08:38:15.060Z,24.20
2018-11-26T08:39:15.033Z,24.00
2018-11-26T08:40:15.040Z,24.30
2018-11-26T08:41:15.012Z,23.90
2018-11-26T08:42:15.011Z,24.90
2018-11-26T08:43:15.376Z,23.80
2018-11-26T08:44:14.979Z,24.20
2018-11-26T08:45:14.969Z,23.60
2018-11-26T08:46:14.972Z,24.30
2018-11-26T08:47:14.948Z,23.90
2018-11-26T08:48:14.940Z,24.20
2018-11-26T08:49:14.956Z,22.70
2018-11-26T08:50:14.918Z,24.30
2018-11-26T08:51:14.908Z,22.80
2018-11-26T08:52:14.902Z,23.70
2018-11-26T08:53:14.883Z,22.60
2018-11-26T08:54:14.876Z,22.70
2018-11-26T08:55:14.881Z,22.60
2018-11-26T08:56:15.945Z,23.60
2018-11-26T08:57:14.842Z,23.20
2018-11-26T08:58:14.852Z,23.30
2018-11-26T08:59:14.844Z,23.20
2018-11-26T09:00:14.808Z,23.70
2018-11-26T09:01:14.798Z,23.70
2018-11-26T09:02:14.797Z,23.30
2018-11-26T09:03:15.123Z,21.40
2018-11-26T09:04:14.813Z,22.60
2018-11-26T09:05:14.772Z,22.10
2018-11-26T09:06:14.745Z,21.70
2018-11-26T09:07:14.737Z,23.20
2018-11-26T09:08:14.752Z,22.90
2018-11-26T09:09:14.715Z,22.30
2018-11-26T09:10:14.701Z,22.30
2018-11-26T09:11:14.715Z,22.60
2018-11-26T09:12:14.681Z,24.10
2018-11-26T09:13:14.693Z,22.40
2018-11-26T09:14:14.671Z,24.20
2018-11-26T09:15:14.648Z,23.70
2018-11-26T09:16:14.637Z,23.40
2018-11-26T09:17:14.639Z,22.70
2018-11-26T09:18:14.615Z,22.20
2018-11-26T09:19:14.621Z,23.40
2018-11-26T09:20:14.607Z,22.50
2018-11-26T09:21:14.588Z,22.90
2018-11-26T09:22:14.573Z,24.60
2018-11-26T09:23:14.601Z,23.50
2018-11-26T09:24:14.552Z,22.70
2018-11-26T09:25:14.541Z,23.30
2018-11-26T09:26:14.530Z,23.80
2018-11-26T09:27:14.625Z,23.70
2018-11-26T09:28:14.525Z,23.50
2018-11-26T09:29:14.501Z,23.60
2018-11-26T09:30:14.494Z,23.10
2018-11-26T09:31:14.477Z,22.10
2018-11-26T09:32:14.465Z,22.40
2018-11-26T09:33:14.454Z,22.30
2018-11-26T09:34:14.465Z,22.40
2018-11-26T09:35:14.434Z,22.10
2018-11-26T09:36:14.427Z,22.20
2018-11-26T09:37:14.419Z,22.60
2018-11-26T09:38:14.404Z,21.70
2018-11-26T09:39:14.620Z,23.40
2018-11-26T09:40:14.384Z,23.40
2018-11-26T09:41:14.375Z,23.40
2018-11-26T09:42:14.361Z,22.50
2018-11-26T09:43:14.349Z,24.30
2018-11-26T09:44:14.355Z,23.60
2018-11-26T09:45:14.329Z,23.00
2018-11-26T09:46:14.315Z,23.20
2018-11-26T09:47:14.358Z,22.50
2018-11-26T09:48:14.296Z,23.30
2018-11-26T09:49:14.282Z,21.90
2018-11-26T09:50:14.642Z,22.90
2018-11-26T09:51:14.481Z,22.60
2018-11-26T09:52:14.298Z,24.40
2018-11-26T09:53:14.239Z,23.50
2018-11-26T09:54:14.230Z,22.80
2018-11-26T09:55:14.219Z,22.40
2018-11-26T09:56:14.376Z,24.00
2018-11-26T09:57:14.197Z,22.70
2018-11-26T09:58:14.191Z,21.50
2018-11-26T09:59:14.655Z,23.20
2018-11-26T10:00:14.165Z,23.10
2018-11-26T10:01:14.153Z,23.40
2018-11-26T10:02:14.145Z,23.20
2018-11-26T10:03:14.133Z,22.10
2018-11-26T10:04:14.137Z,23.20
2018-11-26T10:05:14.116Z,22.90
2018-11-26T10:06:14.109Z,22.60
2018-11-26T10:07:14.090Z,21.60
2018-11-26T10:08:14.080Z,24.10
2018-11-26T10:09:14.409Z,23.00
2018-11-26T10:10:14.072Z,23.50
2018-11-26T10:11:14.048Z,23.80
2018-11-26T10:12:14.036Z,22.80
2018-11-26T10:13:14.024Z,22.70
2018-11-26T10:14:14.029Z,23.00
2018-11-26T10:15:14.021Z,23.10
2018-11-26T10:16:13.993Z,22.10
2018-11-26T10:17:13.984Z,22.80
2018-11-26T10:18:13.972Z,22.80
2018-11-26T10:19:13.959Z,22.60
2018-11-26T10:20:13.949Z,22.40
2018-11-26T10:21:13.956Z,22.50
2018-11-26T10:22:13.927Z,22.00
2018-11-26T10:23:13.916Z,22.00
2018-11-26T10:24:13.906Z,22.40
2018-11-26T10:25:13.896Z,22.80
2018-11-26T10:26:13.883Z,21.90
2018-11-26T10:27:13.890Z,21.80
2018-11-26T10:28:13.869Z,22.50
2018-11-26T10:29:13.900Z,21.50
2018-11-26T10:30:14.069Z,22.00
2018-11-26T10:31:13.833Z,22.00
2018-11-26T10:32:13.822Z,22.50
2018-11-26T10:33:14.840Z,23.30
2018-11-26T10:34:13.813Z,23.10
2018-11-26T10:35:13.789Z,23.20
2018-11-26T10:36:13.775Z,22.90
2018-11-26T10:37:13.767Z,21.90
2018-11-26T10:38:13.757Z,23.20
2018-11-26T10:39:13.762Z,21.70
2018-11-26T10:40:13.747Z,23.50
2018-11-26T10:41:13.723Z,21.60
2018-11-26T10:42:13.720Z,22.50
2018-11-26T10:43:13.711Z,22.80
2018-11-26T10:44:13.860Z,22.20
2018-11-26T10:45:13.680Z,22.50
2018-11-26T10:46:13.683Z,21.80
2018-11-26T10:47:13.664Z,21.90
2018-11-26T10:48:13.648Z,22.00
2018-11-26T10:49:13.644Z,22.80
2018-11-26T10:50:13.643Z,22.20
2018-11-26T10:51:13.693Z,22.30
2018-11-26T10:52:13.608Z,22.50
2018-11-26T10:53:13.593Z,21.20
2018-11-26T10:54:13.584Z,24.10
2018-11-26T10:55:13.574Z,22.40
2018-11-26T10:56:13.580Z,22.10
2018-11-26T10:57:13.549Z,22.70
2018-11-26T10:58:13.539Z,21.60
2018-11-26T10:59:13.529Z,22.50
2018-11-26T11:00:13.524Z,22.40
2018-11-26T11:01:13.507Z,21.80
2018-11-26T11:02:13.515Z,23.70
2018-11-26T11:03:13.486Z,22.90
2018-11-26T11:04:13.476Z,22.60
2018-11-26T11:05:13.464Z,22.50
2018-11-26T11:06:13.456Z,20.70
2018-11-26T11:07:13.442Z,21.40
2018-11-26T11:08:13.447Z,21.70
2018-11-26T11:09:13.519Z,22.70
2018-11-26T11:10:13.414Z,21.80
2018-11-26T11:11:13.400Z,21.10
2018-11-26T11:12:13.390Z,20.60
2018-11-26T11:13:13.380Z,20.80
2018-11-26T11:14:13.373Z,21.80
2018-11-26T11:15:13.422Z,23.10
2018-11-26T11:16:13.348Z,22.10
2018-11-26T11:17:13.339Z,23.30
2018-11-26T11:18:13.329Z,22.90
2018-11-26T11:19:13.317Z,21.00
2018-11-26T11:20:13.308Z,20.70
2018-11-26T11:21:13.311Z,21.10
2018-11-26T11:22:13.288Z,22.00
2018-11-26T11:23:13.276Z,20.60
2018-11-26T11:24:13.267Z,21.20
2018-11-26T11:25:13.257Z,22.00
2018-11-26T11:26:13.245Z,20.90
2018-11-26T11:27:13.259Z,21.10
2018-11-26T11:28:13.224Z,21.60
2018-11-26T11:29:13.212Z,22.10
2018-11-26T11:30:13.199Z,21.50
2018-11-26T11:31:13.188Z,21.30
2018-11-26T11:32:13.193Z,21.80
2018-11-26T11:33:42.684Z,20.20
2018-11-26T11:34:42.718Z,22.30
2018-11-26T11:35:42.588Z,21.90
2018-11-26T11:36:42.575Z,21.70
2018-11-26T11:37:42.561Z,21.60
2018-11-26T11:38:42.552Z,22.20
2018-11-26T11:39:42.563Z,21.90
2018-11-26T11:40:42.534Z,21.00
2018-11-26T11:41:42.520Z,21.80
2018-11-26T11:42:42.514Z,21.60
2018-11-26T11:43:42.502Z,21.80
2018-11-26T11:44:42.507Z,22.00
2018-11-26T11:45:42.483Z,21.70
2018-11-26T11:46:42.466Z,22.40
2018-11-26T11:47:42.469Z,21.40
2018-11-26T11:48:42.449Z,21.50
2018-11-26T11:49:42.437Z,21.60
2018-11-26T11:50:42.718Z,21.70
2018-11-26T11:51:42.414Z,22.50
2018-11-26T11:52:42.406Z,23.00
2018-11-26T11:53:42.395Z,21.80
2018-11-26T11:54:42.398Z,22.40
2018-11-26T11:55:42.371Z,22.30
2018-11-26T11:56:42.720Z,21.00
2018-11-26T11:57:42.352Z,21.60
2018-11-26T11:58:42.348Z,22.30
2018-11-26T11:59:42.715Z,22.50
2018-11-26T12:00:42.324Z,20.60
2018-11-26T12:01:42.317Z,22.10
2018-11-26T12:02:42.303Z,21.70
2018-11-26T12:03:42.289Z,22.10
2018-11-26T12:04:42.722Z,21.60
2018-11-26T12:05:42.270Z,21.60
2018-11-26T12:06:42.265Z,22.30
2018-11-26T12:07:42.252Z,21.70
2018-11-26T12:08:42.236Z,20.60
2018-11-26T12:09:42.246Z,22.80
2018-11-26T12:10:42.214Z,21.60
2018-11-26T12:11:42.211Z,21.50
2018-11-26T12:12:42.203Z,20.80
2018-11-26T12:13:42.182Z,22.70
2018-11-26T12:14:42.177Z,22.10
2018-11-26T12:15:42.184Z,21.80
2018-11-26T12:16:42.155Z,21.00
2018-11-26T12:17:42.142Z,21.90
2018-11-26T12:18:42.131Z,22.60
2018-11-26T12:19:42.120Z,22.80
2018-11-26T12:20:42.111Z,21.00
2018-11-26T12:21:42.117Z,21.30
2018-11-26T12:22:42.097Z,22.30
2018-11-26T12:23:42.078Z,21.90
2018-11-26T12:24:42.068Z,22.60
2018-11-26T12:25:42.059Z,21.10
2018-11-26T12:26:42.046Z,22.50
2018-11-26T12:27:42.053Z,20.60
2018-11-26T12:28:42.032Z,23.40
2018-11-26T12:29:42.020Z,21.60
2018-11-26T12:30:42.021Z,21.40
2018-11-26T12:31:42.000Z,23.50
2018-11-26T12:32:41.985Z,21.20
2018-11-26T12:33:41.979Z,22.80
2018-11-26T12:34:41.965Z,20.80
2018-11-26T12:35:42.232Z,21.50
2018-11-26T12:36:41.945Z,22.60
2018-11-26T12:37:42.165Z,22.00
2018-11-26T12:38:41.922Z,22.00
2018-11-26T12:39:41.916Z,21.10
2018-11-26T12:40:41.904Z,22.20
2018-11-26T12:41:41.911Z,21.90
2018-11-26T12:42:41.884Z,21.50
2018-11-26T12:43:41.870Z,22.70
2018-11-26T12:44:41.861Z,22.20
2018-11-26T12:45:41.850Z,22.60
2018-11-26T12:46:41.841Z,22.50
2018-11-26T12:47:41.845Z,21.80
2018-11-26T12:48:41.823Z,21.70
2018-11-26T12:49:41.809Z,22.00
2018-11-26T12:50:42.214Z,22.20
2018-11-26T12:51:41.788Z,23.30
2018-11-26T12:52:41.777Z,23.10